createdAt,value
2018-01-15T00:00:27.295Z,29.47
2018-01-15T00:02:55.568Z,33.90
2018-01-15T00:05:23.875Z,39.10
2018-01-15T00:07:52.106Z,36.80
2018-01-15T00:10:20.361Z,44.90
2018-01-15T00:12:48.640Z,40.30
2018-01-15T00:15:16.875Z,36.97
2018-01-15T00:17:45.096Z,41.03
2018-01-15T00:20:13.374Z,29.63
2018-01-15T00:22:41.614Z,37.30
2018-01-15T00:25:10.621Z,36.60
2018-01-15T00:27:39.022Z,38.50
2018-01-15T00:30:07.265Z,30.57
2018-01-15T00:32:36.286Z,41.93
2018-01-15T00:35:04.588Z,37.97
2018-01-15T00:37:32.834Z,53.30
2018-01-15T00:40:01.094Z,29.40
2018-01-15T00:42:29.535Z,32.80
2018-01-15T00:44:57.799Z,41.60
2018-01-15T00:47:26.074Z,57.73
2018-01-15T00:49:54.380Z,39.40
2018-01-15T00:52:22.634Z,37.40
2018-01-15T00:54:50.859Z,44.23
2018-01-15T00:57:19.174Z,44.00
2018-01-15T00:59:47.468Z,35.97
2018-01-15T01:02:15.694Z,45.33
2018-01-15T01:04:43.992Z,32.90
2018-01-15T01:07:12.299Z,41.93
2018-01-15T01:09:40.544Z,39.77
2018-01-15T01:12:08.817Z,37.30
2018-01-15T01:14:37.057Z,37.87
2018-01-15T01:17:05.313Z,33.60
2018-01-15T01:19:33.577Z,45.07
2018-01-15T01:22:01.830Z,46.03
2018-01-15T01:24:30.078Z,39.07
2018-01-15T01:26:58.340Z,33.43
2018-01-15T01:29:26.556Z,65.87
2018-01-15T01:31:55.594Z,54.47
2018-01-15T01:34:23.993Z,33.67
2018-01-15T01:36:52.269Z,35.20
2018-01-15T01:39:20.503Z,43.83
2018-01-15T01:41:49.565Z,38.43
2018-01-15T01:44:17.828Z,36.37
2018-01-15T01:46:46.063Z,43.23
2018-01-15T01:49:15.108Z,41.77
2018-01-15T01:51:43.354Z,39.53
2018-01-15T01:54:11.638Z,67.73
2018-01-15T01:56:40.184Z,39.60
2018-01-15T01:59:09.211Z,36.20
2018-01-15T02:01:37.441Z,39.70
2018-01-15T02:04:05.709Z,38.83
2018-01-15T02:06:33.932Z,36.03
2018-01-15T02:09:02.214Z,52.60
2018-01-15T02:11:30.510Z,35.53
2018-01-15T02:13:58.837Z,47.43
2018-01-15T02:16:27.905Z,35.87
2018-01-15T02:18:56.276Z,38.13
2018-01-15T02:21:25.320Z,34.43
2018-01-15T02:23:53.612Z,43.40
2018-01-15T02:26:21.888Z,53.57
2018-01-15T02:28:50.132Z,52.40
2018-01-15T02:31:18.368Z,39.27
2018-01-15T02:33:46.629Z,44.63
2018-01-15T02:36:14.928Z,44.03
2018-01-15T02:38:43.169Z,38.47
2018-01-15T02:41:11.489Z,70.03
2018-01-15T02:43:39.757Z,53.43
2018-01-15T02:46:07.991Z,47.90
2018-01-15T02:48:36.352Z,54.53
2018-01-15T02:51:04.603Z,50.53
2018-01-15T02:53:33.610Z,45.03
2018-01-15T02:56:02.693Z,44.67
2018-01-15T02:58:31.695Z,43.77
2018-01-15T03:01:00.686Z,45.33
2018-01-15T03:03:29.730Z,47.20
2018-01-15T03:05:57.998Z,48.40
2018-01-15T03:08:26.222Z,45.87
2018-01-15T03:10:55.278Z,45.40
2018-01-15T03:13:23.588Z,50.23
2018-01-15T03:15:51.821Z,53.53
2018-01-15T03:18:20.111Z,92.00
2018-01-15T03:20:48.441Z,52.60
2018-01-15T03:23:18.117Z,48.87
2018-01-15T03:25:46.697Z,41.47
2018-01-15T03:28:14.931Z,45.20
2018-01-15T03:30:43.260Z,48.97
2018-01-15T03:33:11.547Z,39.63
2018-01-15T03:35:40.553Z,55.70
2018-01-15T03:38:08.825Z,54.63
2018-01-15T03:40:37.443Z,57.07
2018-01-15T03:43:06.554Z,57.67
2018-01-15T03:45:34.782Z,50.87
2018-01-15T03:48:03.146Z,47.20
2018-01-15T03:50:32.170Z,48.40
2018-01-15T03:53:00.576Z,54.23
2018-01-15T03:55:28.855Z,54.40
2018-01-15T03:57:57.079Z,37.43
2018-01-15T04:00:26.076Z,47.87
2018-01-15T04:02:54.354Z,43.20
2018-01-15T04:05:22.594Z,48.20
2018-01-15T04:07:50.846Z,45.23
2018-01-15T04:10:19.944Z,48.00
2018-01-15T04:12:48.213Z,42.90
2018-01-15T04:15:16.467Z,47.73
2018-01-15T04:17:44.750Z,48.17
2018-01-15T04:20:13.121Z,41.37
2018-01-15T04:22:41.423Z,44.13
2018-01-15T04:25:09.696Z,54.93
2018-01-15T04:27:37.942Z,45.67
2018-01-15T04:30:06.197Z,56.00
2018-01-15T04:32:34.528Z,46.90
2018-01-15T04:35:02.757Z,43.67
2018-01-15T04:37:30.984Z,43.83
2018-01-15T04:39:59.256Z,50.77
2018-01-15T04:42:28.297Z,42.10
2018-01-15T04:44:57.309Z,46.73
2018-01-15T04:47:25.626Z,56.27
2018-01-15T04:49:53.851Z,74.50
2018-01-15T04:52:22.134Z,47.10
2018-01-15T04:54:50.503Z,43.77
2018-01-15T04:57:18.712Z,57.13
2018-01-15T04:59:46.988Z,63.03
2018-01-15T05:02:15.506Z,45.50
2018-01-15T05:04:44.513Z,42.17
2018-01-15T05:07:12.821Z,41.97
2018-01-15T05:09:41.147Z,48.73
2018-01-15T05:12:09.400Z,37.87
2018-01-15T05:14:37.662Z,59.50
2018-01-15T05:17:05.960Z,47.47
2018-01-15T05:19:34.334Z,47.03
2018-01-15T05:22:02.594Z,53.67
2018-01-15T05:24:30.896Z,54.37
2018-01-15T05:26:59.142Z,49.47
2018-01-15T05:29:27.421Z,67.10
2018-01-15T05:31:55.748Z,61.47
2018-01-15T05:34:24.754Z,48.80
2018-01-15T05:36:52.991Z,60.70
2018-01-15T05:39:22.071Z,53.93
2018-01-15T05:41:51.114Z,62.13
2018-01-15T05:44:19.363Z,59.10
2018-01-15T05:46:47.650Z,66.60
2018-01-15T05:49:16.697Z,54.90
2018-01-15T05:51:44.923Z,55.27
2018-01-15T05:54:13.988Z,54.83
2018-01-15T05:56:42.244Z,53.60
2018-01-15T05:59:10.482Z,55.63
2018-01-15T06:01:38.793Z,56.40
2018-01-15T06:04:07.293Z,67.77
2018-01-15T06:06:35.609Z,66.80
2018-01-15T06:09:03.920Z,53.70
2018-01-15T06:11:32.154Z,56.90
2018-01-15T06:14:01.201Z,50.33
2018-01-15T06:16:29.477Z,58.67
2018-01-15T06:18:58.572Z,58.43
2018-01-15T06:21:26.815Z,71.47
2018-01-15T06:23:55.199Z,61.53
2018-01-15T06:26:23.455Z,49.73
2018-01-15T06:28:51.684Z,65.73
2018-01-15T06:31:19.958Z,60.47
2018-01-15T06:33:48.294Z,54.30
2018-01-15T06:36:16.528Z,63.43
2018-01-15T06:38:44.802Z,67.00
2018-01-15T06:41:13.049Z,61.23
2018-01-15T06:43:41.428Z,71.80
2018-01-15T06:46:09.714Z,58.60
2018-01-15T06:48:38.000Z,65.90
2018-01-15T06:51:06.361Z,53.87
2018-01-15T06:53:34.638Z,72.90
2018-01-15T06:56:02.877Z,68.63
2018-01-15T06:58:31.988Z,59.83
2018-01-15T07:01:00.279Z,55.17
2018-01-15T07:03:28.584Z,66.63
2018-01-15T07:05:57.690Z,69.53
2018-01-15T07:08:26.076Z,53.73
2018-01-15T07:10:55.072Z,71.03
2018-01-15T07:13:24.663Z,64.10
2018-01-15T07:15:52.950Z,57.20
2018-01-15T07:18:22.011Z,65.17
2018-01-15T07:20:50.282Z,62.43
2018-01-15T07:23:18.590Z,71.40
2018-01-15T07:25:46.877Z,56.37
2018-01-15T07:28:15.129Z,60.00
2018-01-15T07:30:43.417Z,52.10
2018-01-15T07:33:12.426Z,66.93
2018-01-15T07:35:40.662Z,78.70
2018-01-15T07:38:08.921Z,55.23
2018-01-15T07:40:37.174Z,58.07
2018-01-15T07:43:05.516Z,64.87
2018-01-15T07:45:34.573Z,58.23
2018-01-15T07:48:02.803Z,52.90
2018-01-15T07:50:31.821Z,58.77
2018-01-15T07:53:00.124Z,71.57
2018-01-15T07:55:28.363Z,70.90
2018-01-15T07:57:56.639Z,82.93
2018-01-15T08:00:24.921Z,76.47
2018-01-15T08:02:53.320Z,74.10
2018-01-15T08:05:21.559Z,57.13
2018-01-15T08:07:50.023Z,67.83
2018-01-15T08:10:18.452Z,68.07
2018-01-15T08:12:46.700Z,73.90
2018-01-15T08:15:15.007Z,67.27
2018-01-15T08:17:43.237Z,61.83
2018-01-15T08:20:12.319Z,62.60
2018-01-15T08:22:41.386Z,81.43
2018-01-15T08:25:09.638Z,62.07
2018-01-15T08:27:37.936Z,61.07
2018-01-15T08:30:07.040Z,75.57
2018-01-15T08:32:35.365Z,73.77
2018-01-15T08:35:03.650Z,78.90
2018-01-15T08:37:32.019Z,79.43
2018-01-15T08:40:00.297Z,70.97
2018-01-15T08:42:28.574Z,72.50
2018-01-15T08:44:57.754Z,85.77
2018-01-15T08:47:26.050Z,61.50
2018-01-15T08:49:54.436Z,84.93
2018-01-15T08:52:22.737Z,80.30
2018-01-15T08:54:50.982Z,59.90
2018-01-15T08:57:19.240Z,57.33
2018-01-15T08:59:47.547Z,86.77
2018-01-15T09:02:15.770Z,85.73
2018-01-15T09:04:44.055Z,66.60
2018-01-15T09:07:13.137Z,76.47
2018-01-15T09:09:41.406Z,77.33
2018-01-15T09:12:09.729Z,65.43
2018-01-15T09:14:38.138Z,71.30
2018-01-15T09:17:06.405Z,63.87
2018-01-15T09:19:34.662Z,80.17
2018-01-15T09:22:03.039Z,65.17
2018-01-15T09:24:31.301Z,64.17
2018-01-15T09:26:59.558Z,68.70
2018-01-15T09:29:28.596Z,74.70
2018-01-15T09:31:56.857Z,76.70
2018-01-15T09:34:25.149Z,71.83
2018-01-15T09:36:53.460Z,68.40
2018-01-15T09:39:21.820Z,58.70
2018-01-15T09:41:50.083Z,67.00
2018-01-15T09:44:18.374Z,85.07
2018-01-15T09:46:46.668Z,68.03
2018-01-15T09:49:14.967Z,66.80
2018-01-15T09:51:43.285Z,66.23
2018-01-15T09:54:11.565Z,69.93
2018-01-15T09:56:41.512Z,81.10
2018-01-15T09:59:09.862Z,82.00
2018-01-15T10:01:38.119Z,73.43
2018-01-15T10:04:06.370Z,75.70
2018-01-15T10:06:35.437Z,57.37
2018-01-15T10:09:03.666Z,53.40
2018-01-15T10:11:32.246Z,60.73
2018-01-15T10:14:00.587Z,60.97
2018-01-15T10:16:29.626Z,59.00
2018-01-15T10:18:57.871Z,75.77
2018-01-15T10:21:26.171Z,52.20
2018-01-15T10:23:54.562Z,59.30
2018-01-15T10:26:22.814Z,55.50
2018-01-15T10:28:51.089Z,51.27
2018-01-15T10:31:19.350Z,51.40
2018-01-15T10:33:47.639Z,60.17
2018-01-15T10:36:15.933Z,47.33
2018-01-15T10:38:44.187Z,63.77
2018-01-15T10:41:12.458Z,60.37
2018-01-15T10:43:40.810Z,47.90
2018-01-15T10:46:09.862Z,60.30
2018-01-15T10:48:38.116Z,51.07
2018-01-15T10:51:06.594Z,62.50
2018-01-15T10:53:34.910Z,57.60
2018-01-15T10:56:03.153Z,54.00
2018-01-15T10:58:31.436Z,52.93
2018-01-15T11:00:59.728Z,55.73
2018-01-15T11:03:28.503Z,46.97
2018-01-15T11:08:38.840Z,56.17
2018-01-15T11:11:07.222Z,55.93
2018-01-15T11:13:35.564Z,58.20
2018-01-15T11:16:03.882Z,51.57
2018-01-15T11:18:32.250Z,59.00
2018-01-15T11:21:00.605Z,61.10
2018-01-15T11:23:28.913Z,46.13
2018-01-15T11:25:57.301Z,43.73
2018-01-15T11:28:25.667Z,59.40
2018-01-15T11:30:53.967Z,52.27
2018-01-15T11:33:23.002Z,49.07
2018-01-15T11:35:51.360Z,43.47
2018-01-15T11:38:19.590Z,50.73
2018-01-15T11:40:47.887Z,51.43
2018-01-15T11:43:16.129Z,61.03
2018-01-15T11:45:45.148Z,47.40
2018-01-15T11:48:13.951Z,51.37
2018-01-15T11:50:42.297Z,58.67
2018-01-15T11:53:11.307Z,50.90
2018-01-15T11:55:39.613Z,42.43
2018-01-15T11:58:07.887Z,48.33
2018-01-15T12:00:36.193Z,46.30
2018-01-15T12:03:04.726Z,48.43
2018-01-15T12:05:33.438Z,44.77
2018-01-15T12:08:01.706Z,47.03
2018-01-15T12:10:30.139Z,48.00
2018-01-15T12:12:59.368Z,45.70
2018-01-15T12:15:27.858Z,46.70
2018-01-15T12:17:56.248Z,44.50
2018-01-15T12:20:24.546Z,44.57
2018-01-15T12:22:52.901Z,57.20
2018-01-15T12:25:21.251Z,53.27
2018-01-15T12:27:49.472Z,39.23
2018-01-15T12:30:17.747Z,36.90
2018-01-15T12:32:46.113Z,44.80
2018-01-15T12:35:14.345Z,33.70
2018-01-15T12:37:42.616Z,37.97
2018-01-15T12:40:10.940Z,44.33
2018-01-15T12:42:39.230Z,50.77
2018-01-15T12:45:09.739Z,46.33
2018-01-15T12:47:38.838Z,38.47
2018-01-15T12:50:07.281Z,47.27
2018-01-15T12:52:35.596Z,35.37
2018-01-15T12:55:03.943Z,40.00
2018-01-15T12:57:32.198Z,29.87
2018-01-15T13:00:00.453Z,24.70
2018-01-15T13:02:29.554Z,32.50
2018-01-15T13:04:59.462Z,21.93
2018-01-15T13:07:46.049Z,31.30
2018-01-15T13:10:14.864Z,26.03
2018-01-15T13:12:44.092Z,25.23
2018-01-15T13:15:12.409Z,27.67
2018-01-15T13:17:40.695Z,27.27
2018-01-15T13:20:08.963Z,23.20
2018-01-15T13:22:37.253Z,27.00
2018-01-15T13:25:06.164Z,26.23
2018-01-15T13:27:35.580Z,27.30
2018-01-15T13:30:03.903Z,24.80
2018-01-15T13:32:32.151Z,23.63
2018-01-15T13:35:00.487Z,24.63
2018-01-15T13:37:30.758Z,30.13
2018-01-15T13:39:58.993Z,27.60
2018-01-15T13:42:27.389Z,24.93
2018-01-15T13:44:56.282Z,31.23
2018-01-15T13:47:24.552Z,26.87
2018-01-15T13:49:52.831Z,24.90
2018-01-15T13:52:21.117Z,21.67
2018-01-15T13:54:49.504Z,27.80
2018-01-15T13:57:18.176Z,26.90
2018-01-15T13:59:46.521Z,27.00
2018-01-15T14:02:14.782Z,21.53
2018-01-15T14:04:43.183Z,27.17
2018-01-15T14:07:11.457Z,24.40
2018-01-15T14:09:39.931Z,21.73
2018-01-15T14:12:09.061Z,23.37
2018-01-15T14:14:38.704Z,19.23
2018-01-15T14:17:08.184Z,20.40
2018-01-15T14:19:36.694Z,17.10
2018-01-15T14:22:04.999Z,21.10
2018-01-15T14:24:33.309Z,22.73
2018-01-15T14:27:01.606Z,24.77
2018-01-15T14:29:30.487Z,23.13
2018-01-15T14:31:58.806Z,19.50
2018-01-15T14:34:27.280Z,19.40
2018-01-15T14:36:56.300Z,22.90
2018-01-15T14:39:26.012Z,23.10
2018-01-15T14:41:54.240Z,23.80
2018-01-15T14:44:22.753Z,21.40
2018-01-15T14:46:51.803Z,25.80
2018-01-15T14:49:20.060Z,20.50
2018-01-15T14:51:48.416Z,21.30
2018-01-15T14:54:17.458Z,17.63
2018-01-15T14:56:46.098Z,26.30
2018-01-15T14:59:14.384Z,22.90
2018-01-15T15:01:46.643Z,22.37
2018-01-15T15:04:15.056Z,23.60
2018-01-15T15:06:43.417Z,21.23
2018-01-15T15:09:12.718Z,21.90
2018-01-15T15:11:41.024Z,31.70
2018-01-15T15:14:09.309Z,23.23
2018-01-15T15:16:37.677Z,23.60
2018-01-15T15:19:06.139Z,19.13
2018-01-15T15:21:34.485Z,20.20
2018-01-15T15:24:02.758Z,18.60
2018-01-15T15:26:31.024Z,18.97
2018-01-15T15:28:59.662Z,18.83
2018-01-15T15:31:27.946Z,20.73
2018-01-15T15:33:56.247Z,19.13
2018-01-15T15:36:24.502Z,22.47
2018-01-15T15:38:52.736Z,18.57
2018-01-15T15:41:21.735Z,28.40
2018-01-15T15:43:50.070Z,21.30
2018-01-15T15:46:18.341Z,23.47
2018-01-15T15:48:46.698Z,21.90
2018-01-15T15:51:14.993Z,22.20
2018-01-15T15:53:45.843Z,23.53
2018-01-15T15:56:14.924Z,24.40
2018-01-15T15:58:43.308Z,19.57
2018-01-15T16:01:11.607Z,19.83
2018-01-15T16:03:41.023Z,21.00
2018-01-15T16:06:09.307Z,18.80
2018-01-15T16:08:37.603Z,22.60
2018-01-15T16:11:07.759Z,24.40
2018-01-15T16:13:38.700Z,33.43
2018-01-15T16:16:07.177Z,27.03
2018-01-15T16:18:36.212Z,23.60
2018-01-15T16:21:05.710Z,21.47
2018-01-15T16:23:34.069Z,21.40
2018-01-15T16:26:02.384Z,25.63
2018-01-15T16:28:30.646Z,27.17
2018-01-15T16:30:59.090Z,21.90
2018-01-15T16:33:28.128Z,25.13
2018-01-15T16:35:58.999Z,25.73
2018-01-15T16:38:27.429Z,19.70
2018-01-15T16:40:55.862Z,26.03
2018-01-15T16:43:24.171Z,25.57
2018-01-15T16:45:53.164Z,28.43
2018-01-15T16:48:21.417Z,23.40
2018-01-15T16:50:49.732Z,22.30
2018-01-15T16:53:17.990Z,23.27
2018-01-15T16:55:47.088Z,19.10
2018-01-15T16:58:15.644Z,20.73
2018-01-15T17:00:43.931Z,19.90
2018-01-15T17:03:12.943Z,32.47
2018-01-15T17:05:41.236Z,26.17
2018-01-15T17:08:09.460Z,27.33
2018-01-15T17:10:37.677Z,21.90
2018-01-15T17:13:05.984Z,21.30
2018-01-15T17:15:34.273Z,22.93
2018-01-15T17:18:02.680Z,21.73
2018-01-15T17:20:31.755Z,22.27
2018-01-15T17:22:59.970Z,32.77
2018-01-15T17:25:28.226Z,26.70
2018-01-15T17:27:57.242Z,25.77
2018-01-15T17:30:25.456Z,34.97
2018-01-15T17:32:53.874Z,25.10
2018-01-15T17:35:22.933Z,26.60
2018-01-15T17:37:51.159Z,20.83
2018-01-15T17:40:20.185Z,26.43
2018-01-15T17:42:48.606Z,27.20
2018-01-15T17:45:17.610Z,27.37
2018-01-15T17:47:46.880Z,23.80
2018-01-15T17:50:16.391Z,25.60
2018-01-15T17:52:44.666Z,29.30
2018-01-15T17:55:13.403Z,21.20
2018-01-15T17:57:42.444Z,21.40
2018-01-15T18:00:10.747Z,21.47
2018-01-15T18:02:38.999Z,25.90
2018-01-15T18:05:07.708Z,24.17
2018-01-15T18:07:37.406Z,22.30
2018-01-15T18:10:06.492Z,20.03
2018-01-15T18:12:34.792Z,24.43
2018-01-15T18:15:03.905Z,25.10
2018-01-15T18:17:32.342Z,22.40
2018-01-15T18:20:02.749Z,23.70
2018-01-15T18:22:31.018Z,29.50
2018-01-15T18:24:59.608Z,27.40
2018-01-15T18:27:27.991Z,29.50
2018-01-15T18:29:57.005Z,26.17
2018-01-15T18:32:25.288Z,30.30
2018-01-15T18:34:53.632Z,30.93
2018-01-15T18:37:21.866Z,25.53
2018-01-15T18:39:50.206Z,28.07
2018-01-15T18:42:18.578Z,29.23
2018-01-15T18:44:47.618Z,56.77
2018-01-15T18:47:15.920Z,28.63
2018-01-15T18:49:45.128Z,29.33
2018-01-15T18:52:13.365Z,28.70
2018-01-15T18:54:41.606Z,30.67
2018-01-15T18:57:09.945Z,31.53
2018-01-15T18:59:38.500Z,25.77
2018-01-15T19:02:06.932Z,26.37
2018-01-15T19:04:35.978Z,35.70
2018-01-15T19:07:04.220Z,34.23
2018-01-15T19:09:33.305Z,24.53
2018-01-15T19:12:02.363Z,25.03
2018-01-15T19:14:30.671Z,29.10
2018-01-15T19:16:59.001Z,31.70
2018-01-15T19:19:27.261Z,62.10
2018-01-15T19:21:55.486Z,29.77
2018-01-15T19:24:23.869Z,37.13
2018-01-15T19:26:52.264Z,34.80
2018-01-15T19:29:20.526Z,46.73
2018-01-15T19:31:48.861Z,31.30
2018-01-15T19:34:18.298Z,39.60
2018-01-15T19:36:46.550Z,27.70
2018-01-15T19:39:14.873Z,32.17
2018-01-15T19:41:43.183Z,30.83
2018-01-15T19:44:17.235Z,24.97
2018-01-15T19:46:50.969Z,27.00
2018-01-15T19:49:25.508Z,24.90
2018-01-15T19:52:00.102Z,30.10
2018-01-15T19:57:31.393Z,26.93
2018-01-15T20:00:06.184Z,30.10
2018-01-15T20:05:45.771Z,30.33
2018-01-15T20:08:20.278Z,27.70
2018-01-15T20:10:49.342Z,34.80
2018-01-15T20:13:17.660Z,31.07
2018-01-15T20:15:45.914Z,25.67
2018-01-15T20:18:14.207Z,27.50
2018-01-15T20:20:42.456Z,27.00
2018-01-15T20:23:10.729Z,29.00
2018-01-15T20:25:39.020Z,32.67
2018-01-15T20:28:07.274Z,22.87
2018-01-15T20:30:35.576Z,24.90
2018-01-15T20:33:03.882Z,34.03
2018-01-15T20:35:32.934Z,25.63
2018-01-15T20:38:01.167Z,27.13
2018-01-15T20:40:29.452Z,31.93
2018-01-15T20:42:57.721Z,28.90
2018-01-15T20:45:25.944Z,29.70
2018-01-15T20:47:54.231Z,33.33
2018-01-15T20:50:22.538Z,28.17
2018-01-15T20:52:50.805Z,27.67
2018-01-15T20:55:19.106Z,29.63
2018-01-15T20:57:55.569Z,34.23
2018-01-15T21:00:23.968Z,32.70
2018-01-15T21:02:52.230Z,33.70
2018-01-15T21:05:20.525Z,32.20
2018-01-15T21:07:49.562Z,32.17
2018-01-15T21:10:18.589Z,23.40
2018-01-15T21:12:46.881Z,30.13
2018-01-15T21:15:15.169Z,26.77
2018-01-15T21:17:43.416Z,29.67
2018-01-15T21:20:11.665Z,29.57
2018-01-15T21:22:40.705Z,31.07
2018-01-15T21:25:09.236Z,19.67
2018-01-15T21:27:38.246Z,30.50
2018-01-15T21:30:06.654Z,30.47
2018-01-15T21:32:34.903Z,32.27
2018-01-15T21:35:03.156Z,28.80
2018-01-15T21:37:32.199Z,27.83
2018-01-15T21:40:00.475Z,26.13
2018-01-15T21:42:28.779Z,29.57
2018-01-15T21:44:57.062Z,25.40
2018-01-15T21:47:25.296Z,22.60
2018-01-15T21:49:53.529Z,30.60
2018-01-15T21:52:22.593Z,30.00
2018-01-15T21:54:51.587Z,24.40
2018-01-15T21:57:19.863Z,24.03
2018-01-15T21:59:48.224Z,25.50
2018-01-15T22:02:16.481Z,22.60
2018-01-15T22:04:45.460Z,25.87
2018-01-15T22:07:13.768Z,26.17
2018-01-15T22:09:42.017Z,19.13
2018-01-15T22:12:10.275Z,22.47
2018-01-15T22:14:39.428Z,21.30
2018-01-15T22:17:07.991Z,23.80
2018-01-15T22:19:36.212Z,24.23
2018-01-15T22:22:04.495Z,22.23
2018-01-15T22:24:33.534Z,23.40
2018-01-15T22:27:01.801Z,25.53
2018-01-15T22:29:30.088Z,18.90
2018-01-15T22:31:58.304Z,19.33
2018-01-15T22:34:26.518Z,26.10
2018-01-15T22:36:54.853Z,21.67
2018-01-15T22:39:23.078Z,23.87
2018-01-15T22:41:51.351Z,23.33
2018-01-15T22:44:19.611Z,22.17
2018-01-15T22:46:47.837Z,19.03
2018-01-15T22:49:16.065Z,16.40
2018-01-15T22:51:44.332Z,22.77
2018-01-15T22:54:12.549Z,19.70
2018-01-15T22:56:40.788Z,18.30
2018-01-15T22:59:09.053Z,19.13
2018-01-15T23:01:37.315Z,27.00
2018-01-15T23:04:06.344Z,21.57
2018-01-15T23:06:34.644Z,16.30
2018-01-15T23:09:02.882Z,18.10
2018-01-15T23:11:31.097Z,16.37
2018-01-15T23:13:59.366Z,20.20
2018-01-15T23:16:27.637Z,16.00
2018-01-15T23:18:55.881Z,27.20
2018-01-15T23:21:24.178Z,23.77
2018-01-15T23:23:52.424Z,21.20
2018-01-15T23:26:21.426Z,26.90
2018-01-15T23:28:49.714Z,26.37
2018-01-15T23:31:17.950Z,23.03
2018-01-15T23:33:46.933Z,31.37
2018-01-15T23:36:15.200Z,25.90
2018-01-15T23:38:43.420Z,20.57
2018-01-15T23:41:11.649Z,18.77
2018-01-15T23:43:40.034Z,28.40
2018-01-15T23:46:08.287Z,28.90
2018-01-15T23:48:36.512Z,21.03
2018-01-15T23:51:05.556Z,20.10
2018-01-15T23:53:33.815Z,26.23
2018-01-15T23:56:02.101Z,23.20
2018-01-15T23:58:30.374Z,21.37
